Time;durP1;ratioP1;P1;durP2;ratioP2;P2;SDS_P1;SDS_P2;PMS_P1;PMS_P2;Temp;Humidity;BMP_temperature;BMP_pressure;BME280_temperature;BME280_humidity;BME280_pressure;Samples;Min_cycle;Max_cycle;Signal;HPM_P1;HPM_P2
2021/12/21 00:00:19;;;;;;;6.07;4.20;;;;;;;;;;2114343;28;20131;-44
2021/12/21 00:01:20;;;;;;;6.95;4.30;;;;;;;;;;2114720;28;20052;-44
2021/12/21 00:02:21;;;;;;;7.43;4.82;;;;;;;;;;2112421;28;20125;-44
2021/12/21 00:03:23;;;;;;;6.03;4.37;;;;;;;;;;2113828;28;20491;-45
2021/12/21 00:04:24;;;;;;;7.80;5.53;;;;;;;;;;2114764;28;20054;-44
2021/12/21 00:05:28;;;;;;;8.88;5.80;;;;;;;;;;2115268;28;20047;-44
2021/12/21 00:06:29;;;;;;;7.18;5.35;;;;;;;;;;2106287;28;20048;-43
2021/12/21 00:07:31;;;;;;;8.98;5.78;;;;;;;;;;2106192;28;20127;-44
2021/12/21 00:08:32;;;;;;;8.63;5.22;;;;;;;;;;2112385;28;20551;-44
2021/12/21 00:09:47;;;;;;;7.43;4.88;;;;;;;;;;2114591;28;20479;-43
2021/12/21 00:10:48;;;;;;;7.07;5.30;;;;;;;;;;2112624;28;20048;-43
2021/12/21 00:11:50;;;;;;;6.38;4.70;;;;;;;;;;2117236;28;20126;-44
2021/12/21 00:13:04;;;;;;;10.50;5.47;;;;;;;;;;2114750;28;20147;-47
2021/12/21 00:14:22;;;;;;;7.22;5.30;;;;;;;;;;2115011;28;20135;-44
2021/12/21 00:15:34;;;;;;;6.55;4.38;;;;;;;;;;2106209;28;20416;-45
2021/12/21 00:17:58;;;;;;;3.90;2.80;;;;;;;;;;2097492;28;20288;-45
2021/12/21 00:19:10;;;;;;;4.05;2.97;;;;;;;;;;2106153;28;20054;-45
2021/12/21 00:20:24;;;;;;;3.88;2.70;;;;;;;;;;2111098;28;20069;-45
2021/12/21 00:21:35;;;;;;;5.43;2.90;;;;;;;;;;2106252;28;20523;-44
2021/12/21 00:24:02;;;;;;;3.15;2.42;;;;;;;;;;2094902;28;20581;-45
2021/12/21 00:25:03;;;;;;;4.40;3.00;;;;;;;;;;2116168;28;20150;-44
2021/12/21 00:26:06;;;;;;;2.78;2.10;;;;;;;;;;2115559;28;20072;-45
2021/12/21 00:27:08;;;;;;;3.40;2.33;;;;;;;;;;2114516;28;20071;-44
2021/12/21 00:28:09;;;;;;;4.20;2.67;;;;;;;;;;2114668;28;20048;-44
2021/12/21 00:29:11;;;;;;;4.05;2.55;;;;;;;;;;2113195;28;20051;-44
2021/12/21 00:30:12;;;;;;;4.15;2.60;;;;;;;;;;2114466;28;20188;-45
2021/12/21 00:31:13;;;;;;;5.55;2.95;;;;;;;;;;2114413;28;20051;-44
2021/12/21 00:32:14;;;;;;;3.33;2.53;;;;;;;;;;2111971;28;20045;-45
2021/12/21 00:33:17;;;;;;;4.43;2.47;;;;;;;;;;2106254;28;20135;-45
2021/12/21 00:34:17;;;;;;;3.75;2.60;;;;;;;;;;2106377;28;20126;-46
2021/12/21 00:35:19;;;;;;;6.47;3.63;;;;;;;;;;2113959;28;20054;-46
2021/12/21 00:36:21;;;;;;;5.53;3.40;;;;;;;;;;2106076;28;20058;-48
2021/12/21 00:37:22;;;;;;;;;;;;;;;;;;2107531;28;20127;-47
2021/12/21 00:38:25;;;;;;;3.97;3.13;;;;;;;;;;2111430;28;20014;-47
2021/12/21 00:39:25;;;;;;;4.55;3.05;;;;;;;;;;2114494;28;20487;-46
2021/12/21 00:40:27;;;;;;;3.63;2.93;;;;;;;;;;2112987;28;20060;-46
2021/12/21 00:41:27;;;;;;;5.75;3.70;;;;;;;;;;2117060;28;20429;-47
2021/12/21 00:42:29;;;;;;;4.50;3.38;;;;;;;;;;2123102;28;20047;-46
2021/12/21 00:43:30;;;;;;;6.03;3.50;;;;;;;;;;2118136;28;20123;-45
2021/12/21 00:44:31;;;;;;;4.47;2.92;;;;;;;;;;2112040;28;20446;-46
2021/12/21 00:45:32;;;;;;;3.95;2.53;;;;;;;;;;2105975;28;20132;-47
2021/12/21 00:46:33;;;;;;;5.80;3.30;;;;;;;;;;2108775;28;20101;-46
2021/12/21 00:47:35;;;;;;;4.07;2.70;;;;;;;;;;2112966;28;20040;-46
2021/12/21 00:48:37;;;;;;;5.13;2.90;;;;;;;;;;2114493;28;20100;-46
2021/12/21 00:49:44;;;;;;;4.90;3.05;;;;;;;;;;2114375;28;20100;-47
2021/12/21 00:50:45;;;;;;;4.53;3.25;;;;;;;;;;2107085;28;20051;-46
2021/12/21 00:51:47;;;;;;;5.25;3.22;;;;;;;;;;2105959;28;20048;-47
2021/12/21 00:52:49;;;;;;;5.80;3.67;;;;;;;;;;2113123;28;20081;-47
2021/12/21 00:53:51;;;;;;;5.38;3.60;;;;;;;;;;2106238;28;20518;-46
2021/12/21 00:54:52;;;;;;;7.20;3.97;;;;;;;;;;2105940;28;20477;-47
2021/12/21 00:55:53;;;;;;;6.25;3.55;;;;;;;;;;2110673;28;20053;-46
2021/12/21 00:56:54;;;;;;;7.50;4.72;;;;;;;;;;2114219;28;20127;-47
2021/12/21 00:57:55;;;;;;;9.30;4.40;;;;;;;;;;2114466;28;20058;-47
2021/12/21 00:58:56;;;;;;;7.15;4.40;;;;;;;;;;2111764;28;20054;-46
2021/12/21 00:59:57;;;;;;;9.40;4.13;;;;;;;;;;2114500;28;20062;-46
2021/12/21 01:01:03;;;;;;;4.88;3.33;;;;;;;;;;2113871;28;20135;-48
2021/12/21 01:02:04;;;;;;;5.43;3.33;;;;;;;;;;2113242;28;20135;-47
2021/12/21 01:03:09;;;;;;;4.90;3.37;;;;;;;;;;2105918;28;20510;-47
2021/12/21 01:04:19;;;;;;;4.57;2.80;;;;;;;;;;2106773;28;20352;-48
2021/12/21 01:05:27;;;;;;;3.97;2.60;;;;;;;;;;2111000;28;20131;-47
2021/12/21 01:06:40;;;;;;;3.67;2.70;;;;;;;;;;2105936;28;20079;-47
2021/12/21 01:07:44;;;;;;;5.82;3.08;;;;;;;;;;2110377;28;20044;-47
2021/12/21 01:08:58;;;;;;;4.35;2.75;;;;;;;;;;2114246;28;20044;-49
2021/12/21 01:11:38;;;;;;;4.18;2.40;;;;;;;;;;2113537;28;20184;-47
2021/12/21 01:12:49;;;;;;;4.72;2.53;;;;;;;;;;2114303;28;20067;-48
2021/12/21 01:14:01;;;;;;;5.43;3.30;;;;;;;;;;2111186;28;20040;-48
2021/12/21 01:15:12;;;;;;;3.72;2.15;;;;;;;;;;2114424;28;20459;-47
2021/12/21 01:16:26;;;;;;;4.75;2.70;;;;;;;;;;2111953;28;20134;-46
2021/12/21 01:17:32;;;;;;;3.97;2.40;;;;;;;;;;2113861;28;20043;-46
2021/12/21 01:18:38;;;;;;;4.10;2.70;;;;;;;;;;2114348;28;20047;-46
2021/12/21 01:19:43;;;;;;;4.82;2.58;;;;;;;;;;2111637;28;20119;-47
2021/12/21 01:20:50;;;;;;;6.45;2.50;;;;;;;;;;2113911;28;20484;-47
2021/12/21 01:22:01;;;;;;;5.18;2.67;;;;;;;;;;2113514;28;20043;-48
2021/12/21 01:25:42;;;;;;;4.90;2.60;;;;;;;;;;2098409;28;20055;-46
2021/12/21 01:26:57;;;;;;;4.93;3.08;;;;;;;;;;2105639;28;20630;-46
2021/12/21 01:28:06;;;;;;;5.68;3.15;;;;;;;;;;2112454;28;20096;-46
2021/12/21 01:29:15;;;;;;;4.63;2.80;;;;;;;;;;2110389;28;20040;-47
2021/12/21 01:30:28;;;;;;;4.68;2.80;;;;;;;;;;2105824;28;20181;-46
2021/12/21 01:31:38;;;;;;;5.15;2.90;;;;;;;;;;2110262;28;20506;-46
2021/12/21 01:32:57;;;;;;;4.95;2.88;;;;;;;;;;2104377;28;20043;-46
2021/12/21 01:34:13;;;;;;;5.70;2.95;;;;;;;;;;2108119;28;20138;-46
2021/12/21 01:35:21;;;;;;;5.03;3.10;;;;;;;;;;2113950;28;20040;-46
2021/12/21 01:36:28;;;;;;;4.22;2.58;;;;;;;;;;2114078;28;20472;-47
2021/12/21 01:37:41;;;;;;;4.95;2.80;;;;;;;;;;2113967;28;20126;-49
2021/12/21 01:38:50;;;;;;;2.92;2.13;;;;;;;;;;2105895;28;20079;-48
2021/12/21 01:41:25;;;;;;;3.58;2.63;;;;;;;;;;2100155;28;20048;-46
2021/12/21 01:42:43;;;;;;;4.18;2.97;;;;;;;;;;2105842;28;20040;-49
2021/12/21 01:43:53;;;;;;;4.05;2.33;;;;;;;;;;2112636;28;20384;-46
2021/12/21 01:50:12;;;;;;;4.47;2.60;;;;;;;;;;2113694;28;20048;-46
2021/12/21 01:51:12;;;;;;;5.88;3.20;;;;;;;;;;2114128;28;20048;-47
2021/12/21 01:52:14;;;;;;;3.67;2.43;;;;;;;;;;2114762;28;20039;-46
2021/12/21 01:53:15;;;;;;;4.68;2.83;;;;;;;;;;2105642;28;20196;-46
2021/12/21 01:54:16;;;;;;;5.53;3.10;;;;;;;;;;2105647;28;20052;-46
2021/12/21 01:55:17;;;;;;;4.68;2.90;;;;;;;;;;2113422;28;20127;-47
2021/12/21 01:56:19;;;;;;;4.40;2.80;;;;;;;;;;2105649;28;20051;-47
2021/12/21 01:57:20;;;;;;;;;;;;;;;;;;2105810;28;20050;-47
2021/12/21 01:58:21;;;;;;;5.75;2.88;;;;;;;;;;2111999;28;19970;-46
2021/12/21 01:59:22;;;;;;;5.30;3.10;;;;;;;;;;2114039;28;20134;-48
2021/12/21 02:00:23;;;;;;;6.22;3.20;;;;;;;;;;2113483;28;20043;-48
2021/12/21 02:01:26;;;;;;;5.82;3.20;;;;;;;;;;2111894;28;20142;-46
2021/12/21 02:02:27;;;;;;;6.05;2.90;;;;;;;;;;2114095;28;20047;-46
2021/12/21 02:03:28;;;;;;;4.97;3.35;;;;;;;;;;2112879;28;20048;-50
2021/12/21 02:04:29;;;;;;;8.15;3.63;;;;;;;;;;2112902;28;20377;-46
2021/12/21 02:05:30;;;;;;;7.57;3.85;;;;;;;;;;2113987;28;20542;-46
2021/12/21 02:06:31;;;;;;;9.77;4.00;;;;;;;;;;2111997;28;20092;-48
2021/12/21 02:07:33;;;;;;;7.75;4.13;;;;;;;;;;2113465;28;20039;-49
2021/12/21 02:08:34;;;;;;;8.57;4.68;;;;;;;;;;2115235;28;20054;-47
2021/12/21 02:09:37;;;;;;;7.38;3.70;;;;;;;;;;2113674;28;20088;-46
2021/12/21 02:10:38;;;;;;;5.95;3.53;;;;;;;;;;2120680;28;20042;-47
2021/12/21 02:11:40;;;;;;;9.63;4.30;;;;;;;;;;2123832;28;20137;-48
2021/12/21 02:12:41;;;;;;;11.55;5.25;;;;;;;;;;2118678;28;20046;-51
2021/12/21 02:13:46;;;;;;;8.75;4.97;;;;;;;;;;2107773;28;20066;-46
2021/12/21 02:14:53;;;;;;;9.13;4.60;;;;;;;;;;2107086;28;20131;-46
2021/12/21 02:15:54;;;;;;;7.03;3.25;;;;;;;;;;2111314;28;20514;-46
2021/12/21 02:17:11;;;;;;;8.27;3.90;;;;;;;;;;2114812;28;20039;-46
2021/12/21 02:19:56;;;;;;;7.68;4.10;;;;;;;;;;2080392;28;20046;-46
2021/12/21 02:21:01;;;;;;;5.97;3.17;;;;;;;;;;2081088;28;20050;-47
2021/12/21 02:22:09;;;;;;;8.55;3.75;;;;;;;;;;2088562;28;20045;-46
2021/12/21 02:23:14;;;;;;;8.55;4.60;;;;;;;;;;2115494;28;20087;-48
2021/12/21 02:24:20;;;;;;;9.95;3.97;;;;;;;;;;2114024;28;20445;-45
2021/12/21 02:25:55;;;;;;;8.45;4.10;;;;;;;;;;2118412;28;20551;-47
2021/12/21 02:27:06;;;;;;;6.68;3.33;;;;;;;;;;2123733;28;20051;-47
2021/12/21 02:28:22;;;;;;;7.63;3.08;;;;;;;;;;2113299;28;20050;-46
2021/12/21 02:29:28;;;;;;;7.55;3.53;;;;;;;;;;2115252;28;20048;-46
2021/12/21 02:30:29;;;;;;;5.38;2.88;;;;;;;;;;2114307;28;20044;-46
2021/12/21 02:31:31;;;;;;;5.57;3.00;;;;;;;;;;2113797;28;20492;-47
2021/12/21 02:32:32;;;;;;;6.53;3.35;;;;;;;;;;2107489;28;20127;-47
2021/12/21 02:33:34;;;;;;;8.00;3.20;;;;;;;;;;2109988;28;20047;-47
2021/12/21 02:34:36;;;;;;;5.03;2.97;;;;;;;;;;2123313;28;20417;-46
2021/12/21 02:35:37;;;;;;;5.88;3.70;;;;;;;;;;2123713;28;20567;-47
2021/12/21 02:36:39;;;;;;;4.93;2.80;;;;;;;;;;2115997;28;21108;-46
2021/12/21 02:37:45;;;;;;;5.30;2.95;;;;;;;;;;2115237;28;20047;-50
2021/12/21 02:38:46;;;;;;;6.63;3.42;;;;;;;;;;2115344;28;20484;-46
2021/12/21 02:39:47;;;;;;;5.60;3.28;;;;;;;;;;2112731;28;20040;-46
2021/12/21 02:40:48;;;;;;;4.43;2.63;;;;;;;;;;2115323;28;20119;-47
2021/12/21 02:41:49;;;;;;;6.18;2.90;;;;;;;;;;2114694;28;20146;-47
2021/12/21 02:42:50;;;;;;;5.03;2.75;;;;;;;;;;2114777;28;20829;-51
2021/12/21 02:43:52;;;;;;;3.50;2.30;;;;;;;;;;2106765;28;20056;-48
2021/12/21 02:44:54;;;;;;;4.93;2.67;;;;;;;;;;2107202;28;20217;-46
2021/12/21 02:45:55;;;;;;;5.28;2.53;;;;;;;;;;2112933;28;20039;-47
2021/12/21 02:46:56;;;;;;;4.00;2.40;;;;;;;;;;2115044;28;20073;-47
2021/12/21 02:47:57;;;;;;;4.85;2.47;;;;;;;;;;2114256;28;20039;-47
2021/12/21 02:48:59;;;;;;;4.53;2.80;;;;;;;;;;2118485;28;20072;-48
2021/12/21 02:50:00;;;;;;;5.57;3.08;;;;;;;;;;2123746;28;20063;-47
2021/12/21 02:51:02;;;;;;;6.05;3.25;;;;;;;;;;2119169;28;20051;-47
2021/12/21 02:52:03;;;;;;;5.35;2.92;;;;;;;;;;2113309;28;20496;-47
2021/12/21 02:53:04;;;;;;;5.97;3.03;;;;;;;;;;2106756;28;20055;-47
2021/12/21 02:54:06;;;;;;;6.07;3.42;;;;;;;;;;2109082;28;20040;-46
2021/12/21 02:55:07;;;;;;;6.15;3.45;;;;;;;;;;2113795;28;20051;-46
2021/12/21 02:56:08;;;;;;;6.97;3.00;;;;;;;;;;2114928;28;20051;-46
2021/12/21 02:57:09;;;;;;;5.20;3.13;;;;;;;;;;2112352;28;20086;-49
2021/12/21 02:58:10;;;;;;;5.18;3.10;;;;;;;;;;2121505;28;20053;-47
2021/12/21 02:59:11;;;;;;;4.63;2.90;;;;;;;;;;2123658;28;20047;-46
2021/12/21 03:00:13;;;;;;;5.25;2.85;;;;;;;;;;2117035;28;20067;-46
2021/12/21 03:01:14;;;;;;;4.05;2.55;;;;;;;;;;2114219;28;20096;-46
2021/12/21 03:02:15;;;;;;;3.08;2.20;;;;;;;;;;2115130;28;20050;-46
2021/12/21 03:03:16;;;;;;;3.78;2.28;;;;;;;;;;2112922;28;20406;-46
2021/12/21 03:04:18;;;;;;;3.70;2.53;;;;;;;;;;2114089;28;20048;-46
2021/12/21 03:05:20;;;;;;;4.65;2.85;;;;;;;;;;2114939;28;20064;-47
2021/12/21 03:06:54;;;;;;;;;;;;;;;;;;2115312;28;20130;-46
2021/12/21 03:08:07;;;;;;;6.35;2.63;;;;;;;;;;2106544;28;20440;-46
2021/12/21 03:09:26;;;;;;;3.78;2.22;;;;;;;;;;2110189;28;20048;-46
2021/12/21 03:10:28;;;;;;;4.25;2.58;;;;;;;;;;2106679;28;20407;-46
2021/12/21 03:11:47;;;;;;;;;;;;;;;;;;2106404;28;20555;-47
2021/12/21 03:14:04;;;;;;;5.93;3.00;;;;;;;;;;2097126;28;20048;-48
2021/12/21 03:15:06;;;;;;;5.97;3.30;;;;;;;;;;2108862;28;20565;-46
2021/12/21 03:16:06;;;;;;;6.97;2.80;;;;;;;;;;2114633;28;20122;-46
2021/12/21 03:17:09;;;;;;;6.97;3.50;;;;;;;;;;2115043;28;20043;-46
2021/12/21 03:18:10;;;;;;;5.00;2.60;;;;;;;;;;2113765;28;20043;-48
2021/12/21 03:19:11;;;;;;;4.73;3.07;;;;;;;;;;2114855;28;20050;-46
2021/12/21 03:20:12;;;;;;;4.82;2.70;;;;;;;;;;2115070;28;20120;-46
2021/12/21 03:21:13;;;;;;;6.13;2.85;;;;;;;;;;2112393;28;20104;-47
2021/12/21 03:22:14;;;;;;;5.28;2.90;;;;;;;;;;2106584;28;20093;-47
2021/12/21 03:23:16;;;;;;;5.30;3.17;;;;;;;;;;2106495;28;20117;-49
2021/12/21 03:24:17;;;;;;;4.10;2.50;;;;;;;;;;2111919;28;20097;-46
2021/12/21 03:25:18;;;;;;;7.57;2.75;;;;;;;;;;2115014;28;20126;-47
2021/12/21 03:26:19;;;;;;;4.53;3.10;;;;;;;;;;2114558;28;20047;-48
2021/12/21 03:27:20;;;;;;;6.05;3.53;;;;;;;;;;2112951;28;20134;-47
2021/12/21 03:28:21;;;;;;;6.30;2.83;;;;;;;;;;2115057;28;20409;-49
2021/12/21 03:29:23;;;;;;;5.93;3.45;;;;;;;;;;2114257;28;20055;-46
2021/12/21 03:30:25;;;;;;;5.68;2.50;;;;;;;;;;2112972;28;20139;-46
2021/12/21 03:31:26;;;;;;;4.68;2.40;;;;;;;;;;2114922;28;20051;-47
2021/12/21 03:32:27;;;;;;;5.05;3.00;;;;;;;;;;2108289;28;20093;-48
2021/12/21 03:33:28;;;;;;;4.87;3.07;;;;;;;;;;2113722;28;20476;-47
2021/12/21 03:34:29;;;;;;;4.25;2.47;;;;;;;;;;2106486;28;20044;-46
2021/12/21 03:35:30;;;;;;;6.20;3.03;;;;;;;;;;2107335;28;20044;-47
2021/12/21 03:36:31;;;;;;;6.05;2.95;;;;;;;;;;2109320;28;20506;-47
2021/12/21 03:37:33;;;;;;;3.95;2.53;;;;;;;;;;2106779;28;20082;-45
2021/12/21 03:38:35;;;;;;;4.97;2.83;;;;;;;;;;2108413;28;20132;-44
2021/12/21 03:39:37;;;;;;;4.45;2.80;;;;;;;;;;2111769;28;20072;-44
2021/12/21 03:40:37;;;;;;;4.68;2.88;;;;;;;;;;2106415;28;20533;-43
2021/12/21 03:41:40;;;;;;;7.40;3.60;;;;;;;;;;2109474;28;20984;-44
2021/12/21 03:42:41;;;;;;;6.15;3.17;;;;;;;;;;2113548;28;20048;-44
2021/12/21 03:43:42;;;;;;;5.27;3.23;;;;;;;;;;2114836;28;20043;-44
2021/12/21 03:44:43;;;;;;;6.35;3.17;;;;;;;;;;2113411;28;20127;-44
2021/12/21 03:45:53;;;;;;;6.18;3.60;;;;;;;;;;2113915;28;20043;-44
2021/12/21 03:46:56;;;;;;;5.10;3.13;;;;;;;;;;2114835;28;20044;-43
2021/12/21 03:47:57;;;;;;;5.15;3.22;;;;;;;;;;2115266;28;20035;-43
2021/12/21 03:49:02;;;;;;;7.97;4.00;;;;;;;;;;2106527;28;20048;-45
2021/12/21 03:50:11;;;;;;;6.00;3.40;;;;;;;;;;2106017;28;20052;-43
2021/12/21 03:51:12;;;;;;;6.78;3.65;;;;;;;;;;2113462;28;20048;-44
2021/12/21 03:52:14;;;;;;;5.43;2.92;;;;;;;;;;2106340;28;20616;-44
2021/12/21 03:53:16;;;;;;;4.50;2.92;;;;;;;;;;2107721;28;20527;-43
2021/12/21 03:54:17;;;;;;;5.32;3.05;;;;;;;;;;2113873;28;20040;-43
2021/12/21 03:55:18;;;;;;;4.88;3.00;;;;;;;;;;2106371;28;20040;-44
2021/12/21 03:56:40;;;;;;;4.80;3.10;;;;;;;;;;2107664;28;20060;-43
2021/12/21 03:57:41;;;;;;;5.13;2.70;;;;;;;;;;2106755;28;20044;-45
2021/12/21 03:58:42;;;;;;;5.38;3.30;;;;;;;;;;2106221;28;20481;-43
2021/12/21 03:59:44;;;;;;;6.47;3.13;;;;;;;;;;2110573;28;20135;-44
2021/12/21 04:00:45;;;;;;;5.10;3.28;;;;;;;;;;2114658;28;20043;-44
2021/12/21 04:01:46;;;;;;;4.65;3.30;;;;;;;;;;2114533;28;20088;-43
2021/12/21 04:02:47;;;;;;;7.17;3.53;;;;;;;;;;2115579;28;20092;-43
2021/12/21 04:03:48;;;;;;;4.50;3.08;;;;;;;;;;2114742;28;20044;-43
2021/12/21 04:04:51;;;;;;;4.65;2.95;;;;;;;;;;2114676;28;20056;-44
2021/12/21 04:05:52;;;;;;;5.80;3.28;;;;;;;;;;2114512;28;20122;-43
2021/12/21 04:06:53;;;;;;;6.07;3.83;;;;;;;;;;2123200;28;20043;-44
2021/12/21 04:07:53;;;;;;;7.25;3.80;;;;;;;;;;2122313;28;20130;-43
2021/12/21 04:08:55;;;;;;;7.10;4.00;;;;;;;;;;2112743;28;20397;-44
2021/12/21 04:09:56;;;;;;;6.77;3.57;;;;;;;;;;2114394;28;20043;-43
2021/12/21 04:10:57;;;;;;;6.70;3.92;;;;;;;;;;2114081;28;20827;-44
2021/12/21 04:12:00;;;;;;;7.13;3.85;;;;;;;;;;2112609;28;20088;-44
2021/12/21 04:13:01;;;;;;;6.25;3.85;;;;;;;;;;2114577;28;20071;-43
2021/12/21 04:14:02;;;;;;;7.85;4.25;;;;;;;;;;2113305;28;20146;-43
2021/12/21 04:15:04;;;;;;;7.28;4.00;;;;;;;;;;2113244;28;20496;-45
2021/12/21 04:16:05;;;;;;;6.63;4.05;;;;;;;;;;2106292;28;20044;-44
2021/12/21 04:17:07;;;;;;;5.97;3.67;;;;;;;;;;2107641;28;20043;-43
2021/12/21 04:18:08;;;;;;;7.18;3.80;;;;;;;;;;2112282;28;20093;-43
2021/12/21 04:19:09;;;;;;;5.80;3.50;;;;;;;;;;2106219;28;20447;-43
2021/12/21 04:20:10;;;;;;;6.35;3.65;;;;;;;;;;2109108;28;20075;-43
2021/12/21 04:21:13;;;;;;;6.07;3.80;;;;;;;;;;2113013;28;20051;-44
2021/12/21 04:22:14;;;;;;;7.55;4.40;;;;;;;;;;2114573;28;20049;-44
2021/12/21 04:23:15;;;;;;;8.00;4.20;;;;;;;;;;2114692;28;20139;-44
2021/12/21 04:24:16;;;;;;;6.18;3.47;;;;;;;;;;2107036;28;20130;-45
2021/12/21 04:25:17;;;;;;;6.07;3.78;;;;;;;;;;2106254;28;20055;-44
2021/12/21 04:26:19;;;;;;;5.10;3.35;;;;;;;;;;2112223;28;20122;-45
2021/12/21 04:27:20;;;;;;;6.68;4.00;;;;;;;;;;2107395;28;20090;-44
2021/12/21 04:28:21;;;;;;;5.00;3.50;;;;;;;;;;2106144;28;20132;-44
2021/12/21 04:29:22;;;;;;;5.63;3.63;;;;;;;;;;2110511;28;20411;-44
2021/12/21 04:30:23;;;;;;;7.00;3.55;;;;;;;;;;2122632;27;20513;-44
2021/12/21 04:31:24;;;;;;;6.82;3.83;;;;;;;;;;2122545;28;20134;-44
2021/12/21 04:32:25;;;;;;;7.55;4.10;;;;;;;;;;2112037;28;20130;-44
2021/12/21 04:33:26;;;;;;;6.63;3.90;;;;;;;;;;2123179;28;20395;-44
2021/12/21 04:34:27;;;;;;;7.13;3.03;;;;;;;;;;2123123;28;20092;-43
2021/12/21 04:35:28;;;;;;;6.10;3.33;;;;;;;;;;2115213;28;20405;-45
2021/12/21 04:36:30;;;;;;;5.93;3.13;;;;;;;;;;2105980;28;20048;-45
2021/12/21 04:37:34;;;;;;;5.57;3.25;;;;;;;;;;2105612;28;20048;-44
2021/12/21 04:38:39;;;;;;;6.88;3.58;;;;;;;;;;2112386;28;20050;-45
2021/12/21 04:39:45;;;;;;;5.63;3.40;;;;;;;;;;2114417;28;20480;-43
2021/12/21 04:40:50;;;;;;;4.95;3.47;;;;;;;;;;2112788;28;20510;-44
2021/12/21 04:41:51;;;;;;;7.03;3.42;;;;;;;;;;2106792;28;20473;-44
2021/12/21 04:43:04;;;;;;;8.10;3.72;;;;;;;;;;2106044;28;20417;-43
2021/12/21 04:44:05;;;;;;;7.05;3.15;;;;;;;;;;2111164;28;20059;-45
2021/12/21 04:45:07;;;;;;;6.82;3.67;;;;;;;;;;2114399;28;20127;-44
2021/12/21 04:46:08;;;;;;;6.10;3.60;;;;;;;;;;2114310;28;20574;-43
2021/12/21 04:47:09;;;;;;;6.47;3.65;;;;;;;;;;2112268;28;20138;-44
2021/12/21 04:48:10;;;;;;;7.30;3.80;;;;;;;;;;2114412;28;20050;-44
2021/12/21 04:49:12;;;;;;;6.47;3.80;;;;;;;;;;2113985;28;20071;-44
2021/12/21 04:50:15;;;;;;;4.80;3.45;;;;;;;;;;2113272;28;20051;-44
2021/12/21 04:51:16;;;;;;;4.40;3.10;;;;;;;;;;2105848;28;20514;-43
2021/12/21 04:52:17;;;;;;;6.35;3.35;;;;;;;;;;2106887;28;20044;-44
2021/12/21 04:53:18;;;;;;;6.03;3.47;;;;;;;;;;2109664;28;20050;-45
2021/12/21 04:54:19;;;;;;;5.40;3.20;;;;;;;;;;2106099;28;20043;-43
2021/12/21 04:55:20;;;;;;;6.03;3.70;;;;;;;;;;2106677;28;20485;-43
2021/12/21 04:56:21;;;;;;;7.70;4.60;;;;;;;;;;2117921;28;20077;-43
2021/12/21 04:57:24;;;;;;;7.90;3.90;;;;;;;;;;2122909;28;20133;-43
2021/12/21 04:58:24;;;;;;;;;;;;;;;;;;2118700;28;20558;-44
2021/12/21 04:59:25;;;;;;;6.07;3.42;;;;;;;;;;2113072;28;19973;-43
2021/12/21 05:00:26;;;;;;;7.30;3.55;;;;;;;;;;2114403;28;20062;-43
2021/12/21 05:01:27;;;;;;;6.35;3.75;;;;;;;;;;2113636;28;20472;-44
2021/12/21 05:02:28;;;;;;;7.78;4.30;;;;;;;;;;2110088;28;20411;-44
2021/12/21 05:03:29;;;;;;;7.50;3.90;;;;;;;;;;2106038;28;20077;-43
2021/12/21 05:04:30;;;;;;;5.95;4.13;;;;;;;;;;2109539;28;20089;-43
2021/12/21 05:05:32;;;;;;;7.37;3.70;;;;;;;;;;2112820;28;20454;-43
2021/12/21 05:06:33;;;;;;;6.43;3.72;;;;;;;;;;2114230;28;20047;-43
2021/12/21 05:07:36;;;;;;;6.05;3.65;;;;;;;;;;2114958;28;20050;-44
2021/12/21 05:08:39;;;;;;;6.00;3.90;;;;;;;;;;2106787;28;20511;-43
2021/12/21 05:09:43;;;;;;;8.52;3.72;;;;;;;;;;2105964;28;20496;-44
2021/12/21 05:10:47;;;;;;;6.68;3.90;;;;;;;;;;2109398;28;20150;-44
2021/12/21 05:11:49;;;;;;;5.80;3.65;;;;;;;;;;2114261;28;20035;-44
2021/12/21 05:12:50;;;;;;;7.32;4.40;;;;;;;;;;2114264;28;20192;-44
2021/12/21 05:13:51;;;;;;;6.43;4.60;;;;;;;;;;2113215;28;20050;-44
2021/12/21 05:14:53;;;;;;;6.28;3.00;;;;;;;;;;2123121;28;20047;-43
2021/12/21 05:15:54;;;;;;;6.32;3.28;;;;;;;;;;2121726;28;20043;-46
2021/12/21 05:16:55;;;;;;;5.38;2.80;;;;;;;;;;2113318;28;20104;-46
2021/12/21 05:17:56;;;;;;;4.43;2.55;;;;;;;;;;2105804;28;20040;-48
2021/12/21 05:18:57;;;;;;;6.30;2.83;;;;;;;;;;2106711;28;20541;-47
2021/12/21 05:19:58;;;;;;;7.07;2.90;;;;;;;;;;2113651;28;20051;-48
2021/12/21 05:21:00;;;;;;;5.13;3.33;;;;;;;;;;2114399;28;20047;-46
2021/12/21 05:22:00;;;;;;;8.30;3.72;;;;;;;;;;2112555;28;20050;-48
2021/12/21 05:23:02;;;;;;;7.75;3.90;;;;;;;;;;2108812;28;20122;-47
2021/12/21 05:24:03;;;;;;;7.90;4.80;;;;;;;;;;2105909;28;20052;-47
2021/12/21 05:25:04;;;;;;;8.07;4.30;;;;;;;;;;2109477;28;20123;-48
2021/12/21 05:26:05;;;;;;;8.93;4.05;;;;;;;;;;2113437;28;20047;-47
2021/12/21 05:27:08;;;;;;;8.07;3.37;;;;;;;;;;2114142;28;20092;-49
2021/12/21 05:28:10;;;;;;;4.70;2.80;;;;;;;;;;2115081;28;20808;-46
2021/12/21 05:29:12;;;;;;;6.07;3.03;;;;;;;;;;2106182;28;20054;-47
2021/12/21 05:30:13;;;;;;;4.50;2.72;;;;;;;;;;2105938;28;20101;-47
2021/12/21 05:31:14;;;;;;;4.55;2.75;;;;;;;;;;2110354;28;20091;-47
2021/12/21 05:32:15;;;;;;;8.60;2.67;;;;;;;;;;2108595;28;20446;-47
2021/12/21 05:33:16;;;;;;;4.35;2.78;;;;;;;;;;2105709;28;20093;-47
2021/12/21 05:34:18;;;;;;;3.65;2.45;;;;;;;;;;2114144;28;20100;-48
2021/12/21 05:35:19;;;;;;;3.90;2.80;;;;;;;;;;2122680;28;20051;-47
2021/12/21 05:36:20;;;;;;;5.18;2.95;;;;;;;;;;2121930;28;20148;-47
2021/12/21 05:37:22;;;;;;;5.10;3.10;;;;;;;;;;2112297;28;20136;-47
2021/12/21 05:38:29;;;;;;;5.20;2.78;;;;;;;;;;2114145;28;20043;-47
2021/12/21 05:39:39;;;;;;;5.97;2.40;;;;;;;;;;2113204;28;20051;-47
2021/12/21 05:40:43;;;;;;;5.50;2.78;;;;;;;;;;2117869;28;20078;-47
2021/12/21 05:41:49;;;;;;;5.47;3.22;;;;;;;;;;2122559;28;20057;-47
2021/12/21 05:42:51;;;;;;;3.72;2.38;;;;;;;;;;2115425;27;20051;-49
2021/12/21 05:43:52;;;;;;;4.47;2.75;;;;;;;;;;2123230;28;20039;-47
2021/12/21 05:44:53;;;;;;;5.30;2.30;;;;;;;;;;2124059;28;20506;-51
2021/12/21 05:45:54;;;;;;;4.75;3.05;;;;;;;;;;2117142;28;20138;-48
2021/12/21 05:46:55;;;;;;;9.07;2.73;;;;;;;;;;2123761;28;20050;-47
2021/12/21 05:47:56;;;;;;;3.80;2.58;;;;;;;;;;2124011;28;20138;-48
2021/12/21 05:48:57;;;;;;;6.75;3.30;;;;;;;;;;2115159;28;20055;-47
2021/12/21 05:49:58;;;;;;;10.73;3.22;;;;;;;;;;2115440;28;20076;-49
2021/12/21 05:50:59;;;;;;;6.30;3.38;;;;;;;;;;2115712;28;20135;-47
2021/12/21 05:52:00;;;;;;;6.57;3.38;;;;;;;;;;2112954;28;20503;-47
2021/12/21 05:53:02;;;;;;;6.13;3.07;;;;;;;;;;2115757;28;20079;-47
2021/12/21 05:54:03;;;;;;;5.55;3.03;;;;;;;;;;2115556;28;20131;-46
2021/12/21 05:55:05;;;;;;;4.68;3.15;;;;;;;;;;2114303;28;20100;-46
2021/12/21 05:56:06;;;;;;;7.22;3.70;;;;;;;;;;2115394;28;20135;-46
2021/12/21 05:57:07;;;;;;;6.82;3.30;;;;;;;;;;2115047;28;20637;-46
2021/12/21 05:58:08;;;;;;;6.60;3.58;;;;;;;;;;2115160;28;20073;-47
2021/12/21 05:59:09;;;;;;;4.50;3.17;;;;;;;;;;2107168;28;20177;-47
2021/12/21 06:00:11;;;;;;;6.03;3.40;;;;;;;;;;2107525;28;20563;-48
2021/12/21 06:01:12;;;;;;;;;;;;;;;;;;2114001;28;20399;-47
2021/12/21 06:02:13;;;;;;;7.10;3.65;;;;;;;;;;2115187;28;19920;-48
2021/12/21 06:03:14;;;;;;;6.35;3.85;;;;;;;;;;2114173;28;20397;-48
2021/12/21 06:04:16;;;;;;;6.07;3.40;;;;;;;;;;2113972;28;20500;-47
2021/12/21 06:05:17;;;;;;;7.05;3.35;;;;;;;;;;2107031;28;20048;-47
2021/12/21 06:06:18;;;;;;;4.60;3.10;;;;;;;;;;2107866;28;20135;-48
2021/12/21 06:07:19;;;;;;;4.53;3.08;;;;;;;;;;2114855;28;20070;-47
2021/12/21 06:08:22;;;;;;;5.65;2.92;;;;;;;;;;2115505;28;20395;-47
2021/12/21 06:09:24;;;;;;;6.28;3.03;;;;;;;;;;2114405;28;20126;-48
2021/12/21 06:10:29;;;;;;;;;;;;;;;;;;2112287;28;20043;-47
2021/12/21 06:11:33;;;;;;;5.47;3.10;;;;;;;;;;2106867;28;20010;-47
2021/12/21 06:12:52;;;;;;;5.43;2.65;;;;;;;;;;2110647;28;20057;-48
2021/12/21 06:14:22;;;;;;;3.95;2.42;;;;;;;;;;2107107;28;20123;-47
2021/12/21 06:15:32;;;;;;;4.53;2.72;;;;;;;;;;2110216;28;20048;-48
2021/12/21 06:23:49;;;;;;;4.70;2.72;;;;;;;;;;2092999;28;20050;-47
2021/12/21 06:26:18;;;;;;;5.35;2.75;;;;;;;;;;2072865;28;20168;-49
2021/12/21 06:27:19;;;;;;;6.78;3.35;;;;;;;;;;2097373;28;20101;-48
2021/12/21 06:28:21;;;;;;;3.75;2.85;;;;;;;;;;2114203;28;20126;-47
2021/12/21 06:29:23;;;;;;;8.00;3.40;;;;;;;;;;2115284;28;20529;-47
2021/12/21 06:30:24;;;;;;;6.07;3.75;;;;;;;;;;2116161;28;20126;-47
2021/12/21 06:31:25;;;;;;;9.15;3.30;;;;;;;;;;2107918;28;20048;-48
2021/12/21 06:32:27;;;;;;;7.15;3.55;;;;;;;;;;2105501;28;20126;-51
2021/12/21 06:33:28;;;;;;;6.13;3.30;;;;;;;;;;2111021;28;20419;-48
2021/12/21 06:34:29;;;;;;;7.53;4.20;;;;;;;;;;2115373;28;20040;-47
2021/12/21 06:35:31;;;;;;;8.50;4.00;;;;;;;;;;2115373;28;20288;-47
2021/12/21 06:36:32;;;;;;;4.88;2.92;;;;;;;;;;2112654;28;20179;-47
2021/12/21 06:37:33;;;;;;;4.22;2.88;;;;;;;;;;2115359;28;20579;-49
2021/12/21 06:38:34;;;;;;;4.30;2.47;;;;;;;;;;2115311;28;20058;-48
2021/12/21 06:39:36;;;;;;;4.78;2.17;;;;;;;;;;2113821;28;20130;-47
2021/12/21 06:40:37;;;;;;;4.00;2.38;;;;;;;;;;2115424;28;20057;-47
2021/12/21 06:41:38;;;;;;;5.68;2.00;;;;;;;;;;2114514;28;20173;-47
2021/12/21 06:42:40;;;;;;;3.60;2.40;;;;;;;;;;2111262;28;20135;-47
2021/12/21 06:43:41;;;;;;;3.45;2.28;;;;;;;;;;2106738;28;20537;-46
2021/12/21 06:44:44;;;;;;;4.55;2.33;;;;;;;;;;2107638;28;20123;-47
2021/12/21 06:45:52;;;;;;;4.00;2.80;;;;;;;;;;2117894;28;20039;-48